sensor_id;sensor_type;location;lat;lon;timestamp;temperature;humidity
20045;DHT22;10183;47.808;9.476;2022-09-25T00:00:43;10.30;99.90
20045;DHT22;10183;47.808;9.476;2022-09-25T00:03:11;10.20;99.90
20045;DHT22;10183;47.808;9.476;2022-09-25T00:05:39;10.20;99.90
20045;DHT22;10183;47.808;9.476;2022-09-25T00:08:06;10.10;99.90
20045;DHT22;10183;47.808;9.476;2022-09-25T00:10:32;10.10;99.90
20045;DHT22;10183;47.808;9.476;2022-09-25T00:12:59;10.10;99.90
20045;DHT22;10183;47.808;9.476;2022-09-25T00:15:25;10.00;99.90
20045;DHT22;10183;47.808;9.476;2022-09-25T00:17:51;9.90;99.90
20045;DHT22;10183;47.808;9.476;2022-09-25T00:20:18;9.80;99.90
20045;DHT22;10183;47.808;9.476;2022-09-25T00:22:46;9.80;99.90
20045;DHT22;10183;47.808;9.476;2022-09-25T00:25:13;9.80;99.90
20045;DHT22;10183;47.808;9.476;2022-09-25T00:27:42;9.80;99.90
20045;DHT22;10183;47.808;9.476;2022-09-25T00:30:10;9.80;99.90
20045;DHT22;10183;47.808;9.476;2022-09-25T00:32:37;9.30;99.90
20045;DHT22;10183;47.808;9.476;2022-09-25T00:35:03;9.10;99.90
20045;DHT22;10183;47.808;9.476;2022-09-25T00:37:33;9.00;99.90
20045;DHT22;10183;47.808;9.476;2022-09-25T00:39:59;9.00;99.90
20045;DHT22;10183;47.808;9.476;2022-09-25T00:42:26;8.90;99.90
20045;DHT22;10183;47.808;9.476;2022-09-25T00:44:56;9.00;99.90
20045;DHT22;10183;47.808;9.476;2022-09-25T00:47:27;9.00;99.90
20045;DHT22;10183;47.808;9.476;2022-09-25T00:49:57;9.10;99.90
20045;DHT22;10183;47.808;9.476;2022-09-25T00:52:25;9.10;99.90
20045;DHT22;10183;47.808;9.476;2022-09-25T00:54:58;9.20;99.90
20045;DHT22;10183;47.808;9.476;2022-09-25T00:57:28;9.20;99.90
20045;DHT22;10183;47.808;9.476;2022-09-25T00:59:59;9.30;99.90
20045;DHT22;10183;47.808;9.476;2022-09-25T01:02:32;9.30;99.90
20045;DHT22;10183;47.808;9.476;2022-09-25T01:05:03;9.40;99.90
20045;DHT22;10183;47.808;9.476;2022-09-25T01:07:33;9.40;99.90
20045;DHT22;10183;47.808;9.476;2022-09-25T01:10:02;9.40;99.90
20045;DHT22;10183;47.808;9.476;2022-09-25T01:12:29;9.30;99.90
20045;DHT22;10183;47.808;9.476;2022-09-25T01:14:55;9.30;99.90
20045;DHT22;10183;47.808;9.476;2022-09-25T01:20:59;9.00;99.90
20045;DHT22;10183;47.808;9.476;2022-09-25T01:29:09;8.90;99.90
20045;DHT22;10183;47.808;9.476;2022-09-25T01:34:43;8.80;99.90
20045;DHT22;10183;47.808;9.476;2022-09-25T01:40:32;8.90;99.90
20045;DHT22;10183;47.808;9.476;2022-09-25T01:43:19;9.00;99.90
20045;DHT22;10183;47.808;9.476;2022-09-25T01:45:54;9.10;99.90
20045;DHT22;10183;47.808;9.476;2022-09-25T01:48:25;9.00;99.90
20045;DHT22;10183;47.808;9.476;2022-09-25T01:51:00;8.90;99.90
20045;DHT22;10183;47.808;9.476;2022-09-25T01:53:32;8.90;99.90
20045;DHT22;10183;47.808;9.476;2022-09-25T01:56:42;9.00;99.90
20045;DHT22;10183;47.808;9.476;2022-09-25T01:59:17;9.00;99.90
20045;DHT22;10183;47.808;9.476;2022-09-25T02:01:48;9.00;99.90
20045;DHT22;10183;47.808;9.476;2022-09-25T02:04:32;8.70;99.90
20045;DHT22;10183;47.808;9.476;2022-09-25T02:07:03;8.60;99.90
20045;DHT22;10183;47.808;9.476;2022-09-25T02:09:40;8.60;99.90
20045;DHT22;10183;47.808;9.476;2022-09-25T02:12:14;8.70;99.90
20045;DHT22;10183;47.808;9.476;2022-09-25T02:14:47;8.80;99.90
20045;DHT22;10183;47.808;9.476;2022-09-25T02:17:20;8.50;99.90
20045;DHT22;10183;47.808;9.476;2022-09-25T02:20:07;8.40;99.90
20045;DHT22;10183;47.808;9.476;2022-09-25T02:22:53;8.50;99.90
20045;DHT22;10183;47.808;9.476;2022-09-25T02:25:30;8.60;99.90
20045;DHT22;10183;47.808;9.476;2022-09-25T02:28:00;8.70;99.90
20045;DHT22;10183;47.808;9.476;2022-09-25T02:30:31;8.70;99.90
20045;DHT22;10183;47.808;9.476;2022-09-25T02:32:57;8.80;99.90
20045;DHT22;10183;47.808;9.476;2022-09-25T02:35:24;8.90;99.90
20045;DHT22;10183;47.808;9.476;2022-09-25T02:37:52;9.00;99.90
20045;DHT22;10183;47.808;9.476;2022-09-25T02:40:33;8.80;99.90
20045;DHT22;10183;47.808;9.476;2022-09-25T02:43:06;8.90;99.90
20045;DHT22;10183;47.808;9.476;2022-09-25T02:46:07;8.90;99.90
20045;DHT22;10183;47.808;9.476;2022-09-25T02:51:35;8.80;99.90
20045;DHT22;10183;47.808;9.476;2022-09-25T02:56:39;8.50;99.90
20045;DHT22;10183;47.808;9.476;2022-09-25T02:59:43;8.50;99.90
20045;DHT22;10183;47.808;9.476;2022-09-25T03:02:01;8.50;99.90
20045;DHT22;10183;47.808;9.476;2022-09-25T03:04:29;8.50;99.90
20045;DHT22;10183;47.808;9.476;2022-09-25T03:06:57;8.60;99.90
20045;DHT22;10183;47.808;9.476;2022-09-25T03:09:24;8.60;99.90
20045;DHT22;10183;47.808;9.476;2022-09-25T03:11:50;8.80;99.90
20045;DHT22;10183;47.808;9.476;2022-09-25T03:14:17;8.90;99.90
20045;DHT22;10183;47.808;9.476;2022-09-25T03:16:52;9.00;99.90
20045;DHT22;10183;47.808;9.476;2022-09-25T03:19:21;9.00;99.90
20045;DHT22;10183;47.808;9.476;2022-09-25T03:21:48;9.10;99.90
20045;DHT22;10183;47.808;9.476;2022-09-25T03:24:15;9.20;99.90
20045;DHT22;10183;47.808;9.476;2022-09-25T03:26:41;9.20;99.90
20045;DHT22;10183;47.808;9.476;2022-09-25T03:29:10;9.20;99.90
20045;DHT22;10183;47.808;9.476;2022-09-25T03:31:37;9.30;99.90
20045;DHT22;10183;47.808;9.476;2022-09-25T03:34:04;9.40;99.90
20045;DHT22;10183;47.808;9.476;2022-09-25T03:36:31;9.40;99.90
20045;DHT22;10183;47.808;9.476;2022-09-25T03:38:59;9.40;99.90
20045;DHT22;10183;47.808;9.476;2022-09-25T03:41:31;9.40;99.90
20045;DHT22;10183;47.808;9.476;2022-09-25T03:43:58;9.30;99.90
20045;DHT22;10183;47.808;9.476;2022-09-25T03:46:42;9.20;99.90
20045;DHT22;10183;47.808;9.476;2022-09-25T03:49:08;9.20;99.90
20045;DHT22;10183;47.808;9.476;2022-09-25T03:51:35;9.20;99.90
20045;DHT22;10183;47.808;9.476;2022-09-25T03:54:02;9.30;99.90
20045;DHT22;10183;47.808;9.476;2022-09-25T03:56:29;9.40;99.90
20045;DHT22;10183;47.808;9.476;2022-09-25T03:58:56;9.30;99.90
20045;DHT22;10183;47.808;9.476;2022-09-25T04:01:23;9.30;99.90
20045;DHT22;10183;47.808;9.476;2022-09-25T04:03:50;9.30;99.90
20045;DHT22;10183;47.808;9.476;2022-09-25T04:06:18;9.20;99.90
20045;DHT22;10183;47.808;9.476;2022-09-25T04:08:46;9.20;99.90
20045;DHT22;10183;47.808;9.476;2022-09-25T04:11:14;9.20;99.90
20045;DHT22;10183;47.808;9.476;2022-09-25T04:13:40;9.20;99.90
20045;DHT22;10183;47.808;9.476;2022-09-25T04:16:09;9.20;99.90
20045;DHT22;10183;47.808;9.476;2022-09-25T04:18:37;9.20;99.90
20045;DHT22;10183;47.808;9.476;2022-09-25T04:21:05;9.00;99.90
20045;DHT22;10183;47.808;9.476;2022-09-25T04:23:34;9.00;99.90
20045;DHT22;10183;47.808;9.476;2022-09-25T04:26:00;9.10;99.90
20045;DHT22;10183;47.808;9.476;2022-09-25T04:28:26;9.10;99.90
20045;DHT22;10183;47.808;9.476;2022-09-25T04:30:53;9.10;99.90
20045;DHT22;10183;47.808;9.476;2022-09-25T04:33:20;8.80;99.90
20045;DHT22;10183;47.808;9.476;2022-09-25T04:36:05;8.70;99.90
20045;DHT22;10183;47.808;9.476;2022-09-25T04:38:31;8.70;99.90
20045;DHT22;10183;47.808;9.476;2022-09-25T04:41:01;8.80;99.90
20045;DHT22;10183;47.808;9.476;2022-09-25T04:43:28;8.90;99.90
20045;DHT22;10183;47.808;9.476;2022-09-25T04:45:54;8.80;99.90
20045;DHT22;10183;47.808;9.476;2022-09-25T04:48:21;8.90;99.90
20045;DHT22;10183;47.808;9.476;2022-09-25T04:50:48;8.80;99.90
20045;DHT22;10183;47.808;9.476;2022-09-25T04:53:16;8.90;99.90
20045;DHT22;10183;47.808;9.476;2022-09-25T04:55:42;9.00;99.90
20045;DHT22;10183;47.808;9.476;2022-09-25T04:58:10;8.90;99.90
20045;DHT22;10183;47.808;9.476;2022-09-25T05:00:36;8.90;99.90
20045;DHT22;10183;47.808;9.476;2022-09-25T05:03:04;8.90;99.90
20045;DHT22;10183;47.808;9.476;2022-09-25T05:05:30;8.90;99.90
20045;DHT22;10183;47.808;9.476;2022-09-25T05:07:59;8.90;99.90
20045;DHT22;10183;47.808;9.476;2022-09-25T05:10:28;9.00;99.90
20045;DHT22;10183;47.808;9.476;2022-09-25T05:13:02;9.00;99.90
20045;DHT22;10183;47.808;9.476;2022-09-25T05:15:30;9.00;99.90
20045;DHT22;10183;47.808;9.476;2022-09-25T05:18:02;9.10;99.90
20045;DHT22;10183;47.808;9.476;2022-09-25T05:20:28;9.00;99.90
20045;DHT22;10183;47.808;9.476;2022-09-25T05:22:58;9.00;99.90
20045;DHT22;10183;47.808;9.476;2022-09-25T05:25:25;9.10;99.90
20045;DHT22;10183;47.808;9.476;2022-09-25T05:27:52;9.10;99.90
20045;DHT22;10183;47.808;9.476;2022-09-25T05:30:21;9.10;99.90
20045;DHT22;10183;47.808;9.476;2022-09-25T05:32:51;9.10;99.90
20045;DHT22;10183;47.808;9.476;2022-09-25T05:35:22;9.10;99.90
20045;DHT22;10183;47.808;9.476;2022-09-25T05:37:49;9.20;99.90
20045;DHT22;10183;47.808;9.476;2022-09-25T05:40:17;9.00;99.90
20045;DHT22;10183;47.808;9.476;2022-09-25T05:42:45;8.80;99.90
20045;DHT22;10183;47.808;9.476;2022-09-25T05:45:16;8.80;99.90
20045;DHT22;10183;47.808;9.476;2022-09-25T05:47:43;8.80;99.90
20045;DHT22;10183;47.808;9.476;2022-09-25T05:50:12;8.80;99.90
20045;DHT22;10183;47.808;9.476;2022-09-25T05:52:39;8.90;99.90
20045;DHT22;10183;47.808;9.476;2022-09-25T05:55:05;8.90;99.90
20045;DHT22;10183;47.808;9.476;2022-09-25T05:57:33;8.90;99.90
20045;DHT22;10183;47.808;9.476;2022-09-25T06:00:05;8.90;99.90
20045;DHT22;10183;47.808;9.476;2022-09-25T06:02:32;8.90;99.90
20045;DHT22;10183;47.808;9.476;2022-09-25T06:04:58;9.00;99.90
20045;DHT22;10183;47.808;9.476;2022-09-25T06:07:25;9.00;99.90
20045;DHT22;10183;47.808;9.476;2022-09-25T06:09:51;9.00;99.90
20045;DHT22;10183;47.808;9.476;2022-09-25T06:12:17;9.00;99.90
20045;DHT22;10183;47.808;9.476;2022-09-25T06:14:44;9.10;99.90
20045;DHT22;10183;47.808;9.476;2022-09-25T06:17:11;9.10;99.90
20045;DHT22;10183;47.808;9.476;2022-09-25T06:19:38;9.00;99.90
20045;DHT22;10183;47.808;9.476;2022-09-25T06:22:05;9.10;99.90
20045;DHT22;10183;47.808;9.476;2022-09-25T06:24:31;9.10;99.90
20045;DHT22;10183;47.808;9.476;2022-09-25T06:26:57;9.00;99.90
20045;DHT22;10183;47.808;9.476;2022-09-25T06:29:23;9.10;99.90
20045;DHT22;10183;47.808;9.476;2022-09-25T06:31:51;9.10;99.90
20045;DHT22;10183;47.808;9.476;2022-09-25T06:34:18;8.90;99.90
20045;DHT22;10183;47.808;9.476;2022-09-25T06:36:44;8.60;99.90
20045;DHT22;10183;47.808;9.476;2022-09-25T06:39:10;8.60;99.90
20045;DHT22;10183;47.808;9.476;2022-09-25T06:41:37;8.80;99.90
20045;DHT22;10183;47.808;9.476;2022-09-25T06:44:03;8.70;99.90
20045;DHT22;10183;47.808;9.476;2022-09-25T06:46:29;8.70;99.90
20045;DHT22;10183;47.808;9.476;2022-09-25T06:48:56;8.90;99.90
20045;DHT22;10183;47.808;9.476;2022-09-25T06:51:23;9.10;99.90
20045;DHT22;10183;47.808;9.476;2022-09-25T06:53:53;9.10;99.90
20045;DHT22;10183;47.808;9.476;2022-09-25T06:56:20;9.20;99.90
20045;DHT22;10183;47.808;9.476;2022-09-25T06:58:47;9.00;99.90
20045;DHT22;10183;47.808;9.476;2022-09-25T07:01:13;9.20;99.90
20045;DHT22;10183;47.808;9.476;2022-09-25T07:03:41;9.40;99.90
20045;DHT22;10183;47.808;9.476;2022-09-25T07:06:21;9.40;99.90
20045;DHT22;10183;47.808;9.476;2022-09-25T07:08:48;9.60;99.90
20045;DHT22;10183;47.808;9.476;2022-09-25T07:11:20;9.70;99.90
20045;DHT22;10183;47.808;9.476;2022-09-25T07:13:47;9.60;99.90
20045;DHT22;10183;47.808;9.476;2022-09-25T07:16:16;9.70;99.90
20045;DHT22;10183;47.808;9.476;2022-09-25T07:18:44;9.90;99.90
20045;DHT22;10183;47.808;9.476;2022-09-25T07:21:13;10.10;99.90
20045;DHT22;10183;47.808;9.476;2022-09-25T07:23:41;9.60;99.90
20045;DHT22;10183;47.808;9.476;2022-09-25T07:26:11;9.80;99.90
20045;DHT22;10183;47.808;9.476;2022-09-25T07:28:39;9.90;99.90
20045;DHT22;10183;47.808;9.476;2022-09-25T07:31:17;10.00;99.90
20045;DHT22;10183;47.808;9.476;2022-09-25T07:33:44;9.90;99.90
20045;DHT22;10183;47.808;9.476;2022-09-25T07:36:11;10.00;99.90
20045;DHT22;10183;47.808;9.476;2022-09-25T07:38:38;10.20;99.90
20045;DHT22;10183;47.808;9.476;2022-09-25T07:41:06;10.50;99.90
20045;DHT22;10183;47.808;9.476;2022-09-25T07:43:33;10.80;99.90
20045;DHT22;10183;47.808;9.476;2022-09-25T07:46:00;11.10;99.90
20045;DHT22;10183;47.808;9.476;2022-09-25T07:48:27;11.30;99.90
20045;DHT22;10183;47.808;9.476;2022-09-25T07:51:02;11.40;99.90
20045;DHT22;10183;47.808;9.476;2022-09-25T07:53:28;11.80;99.90
20045;DHT22;10183;47.808;9.476;2022-09-25T07:55:59;11.70;99.90
20045;DHT22;10183;47.808;9.476;2022-09-25T07:58:27;12.00;99.90
20045;DHT22;10183;47.808;9.476;2022-09-25T08:00:58;12.10;99.90
20045;DHT22;10183;47.808;9.476;2022-09-25T08:03:25;12.20;99.90
20045;DHT22;10183;47.808;9.476;2022-09-25T08:06:08;12.30;99.90
20045;DHT22;10183;47.808;9.476;2022-09-25T08:08:39;12.40;99.90
20045;DHT22;10183;47.808;9.476;2022-09-25T08:11:12;12.50;99.90
20045;DHT22;10183;47.808;9.476;2022-09-25T08:13:40;11.60;99.90
20045;DHT22;10183;47.808;9.476;2022-09-25T08:16:08;11.00;99.90
20045;DHT22;10183;47.808;9.476;2022-09-25T08:18:39;10.90;99.90
20045;DHT22;10183;47.808;9.476;2022-09-25T08:21:11;11.00;99.90
20045;DHT22;10183;47.808;9.476;2022-09-25T08:23:40;11.00;99.90
20045;DHT22;10183;47.808;9.476;2022-09-25T08:26:07;11.40;99.90
20045;DHT22;10183;47.808;9.476;2022-09-25T08:28:35;12.00;99.90
20045;DHT22;10183;47.808;9.476;2022-09-25T08:31:02;12.50;99.90
20045;DHT22;10183;47.808;9.476;2022-09-25T08:33:29;12.80;99.90
20045;DHT22;10183;47.808;9.476;2022-09-25T08:35:58;13.20;99.90
20045;DHT22;10183;47.808;9.476;2022-09-25T08:38:26;13.40;99.90
20045;DHT22;10183;47.808;9.476;2022-09-25T08:41:21;13.40;99.90
20045;DHT22;10183;47.808;9.476;2022-09-25T08:46:39;11.90;99.90
20045;DHT22;10183;47.808;9.476;2022-09-25T08:49:29;11.40;99.90
20045;DHT22;10183;47.808;9.476;2022-09-25T08:52:02;11.40;99.90
20045;DHT22;10183;47.808;9.476;2022-09-25T08:54:31;11.50;99.90
20045;DHT22;10183;47.808;9.476;2022-09-25T08:57:13;11.40;99.90
20045;DHT22;10183;47.808;9.476;2022-09-25T08:59:43;11.40;99.90
20045;DHT22;10183;47.808;9.476;2022-09-25T09:02:16;11.60;99.90
20045;DHT22;10183;47.808;9.476;2022-09-25T09:13:16;12.40;99.90
20045;DHT22;10183;47.808;9.476;2022-09-25T09:15:51;12.60;99.90
20045;DHT22;10183;47.808;9.476;2022-09-25T09:21:01;12.50;99.90
20045;DHT22;10183;47.808;9.476;2022-09-25T09:23:35;12.90;99.90
20045;DHT22;10183;47.808;9.476;2022-09-25T09:26:27;13.10;99.90
20045;DHT22;10183;47.808;9.476;2022-09-25T09:42:59;13.00;99.90
20045;DHT22;10183;47.808;9.476;2022-09-25T09:45:52;13.00;99.90
20045;DHT22;10183;47.808;9.476;2022-09-25T09:48:41;12.80;99.90
20045;DHT22;10183;47.808;9.476;2022-09-25T09:51:24;12.90;99.90
20045;DHT22;10183;47.808;9.476;2022-09-25T09:53:58;12.70;99.90
20045;DHT22;10183;47.808;9.476;2022-09-25T09:56:31;12.60;99.90
20045;DHT22;10183;47.808;9.476;2022-09-25T09:59:08;12.50;99.90
20045;DHT22;10183;47.808;9.476;2022-09-25T10:01:38;12.70;99.90
20045;DHT22;10183;47.808;9.476;2022-09-25T10:04:15;12.80;99.90
20045;DHT22;10183;47.808;9.476;2022-09-25T10:07:02;13.10;99.90
20045;DHT22;10183;47.808;9.476;2022-09-25T10:09:32;13.30;99.90
20045;DHT22;10183;47.808;9.476;2022-09-25T10:12:25;13.00;99.90
20045;DHT22;10183;47.808;9.476;2022-09-25T10:14:51;13.00;99.90
20045;DHT22;10183;47.808;9.476;2022-09-25T10:17:19;12.90;99.90
20045;DHT22;10183;47.808;9.476;2022-09-25T10:19:56;12.70;99.90
20045;DHT22;10183;47.808;9.476;2022-09-25T10:22:32;12.80;99.90
20045;DHT22;10183;47.808;9.476;2022-09-25T10:25:02;13.20;99.90
20045;DHT22;10183;47.808;9.476;2022-09-25T10:27:42;13.30;99.90
20045;DHT22;10183;47.808;9.476;2022-09-25T10:30:19;13.70;99.90
20045;DHT22;10183;47.808;9.476;2022-09-25T10:35:43;13.40;99.90
20045;DHT22;10183;47.808;9.476;2022-09-25T10:38:31;13.90;99.90
20045;DHT22;10183;47.808;9.476;2022-09-25T10:43:25;13.40;99.90
20045;DHT22;10183;47.808;9.476;2022-09-25T10:46:11;13.10;99.90
20045;DHT22;10183;47.808;9.476;2022-09-25T10:48:39;13.00;99.90
20045;DHT22;10183;47.808;9.476;2022-09-25T10:51:25;13.20;99.90
20045;DHT22;10183;47.808;9.476;2022-09-25T10:54:12;13.50;99.90
20045;DHT22;10183;47.808;9.476;2022-09-25T10:56:39;13.50;99.90
20045;DHT22;10183;47.808;9.476;2022-09-25T10:59:19;13.60;99.90
20045;DHT22;10183;47.808;9.476;2022-09-25T11:01:47;13.60;99.90
20045;DHT22;10183;47.808;9.476;2022-09-25T11:04:28;13.80;99.90
20045;DHT22;10183;47.808;9.476;2022-09-25T11:07:02;14.00;99.90
20045;DHT22;10183;47.808;9.476;2022-09-25T11:09:32;13.70;99.90
20045;DHT22;10183;47.808;9.476;2022-09-25T11:12:20;13.40;99.90
20045;DHT22;10183;47.808;9.476;2022-09-25T11:15:18;13.20;99.90
20045;DHT22;10183;47.808;9.476;2022-09-25T11:17:48;13.50;99.90
20045;DHT22;10183;47.808;9.476;2022-09-25T11:22:51;14.20;99.90
20045;DHT22;10183;47.808;9.476;2022-09-25T11:33:49;14.00;99.90
20045;DHT22;10183;47.808;9.476;2022-09-25T11:36:26;13.90;99.90
20045;DHT22;10183;47.808;9.476;2022-09-25T11:38:57;14.50;99.90
20045;DHT22;10183;47.808;9.476;2022-09-25T11:42:06;15.00;99.90
20045;DHT22;10183;47.808;9.476;2022-09-25T11:44:41;15.10;99.90
20045;DHT22;10183;47.808;9.476;2022-09-25T11:47:32;15.50;99.90
20045;DHT22;10183;47.808;9.476;2022-09-25T11:50:03;14.90;99.90
20045;DHT22;10183;47.808;9.476;2022-09-25T11:52:41;15.80;99.90
20045;DHT22;10183;47.808;9.476;2022-09-25T12:01:17;17.30;99.90
20045;DHT22;10183;47.808;9.476;2022-09-25T12:18:12;16.40;99.90
20045;DHT22;10183;47.808;9.476;2022-09-25T12:20:58;15.60;99.90
20045;DHT22;10183;47.808;9.476;2022-09-25T12:23:32;14.60;99.90
20045;DHT22;10183;47.808;9.476;2022-09-25T12:39:52;14.40;99.90
20045;DHT22;10183;47.808;9.476;2022-09-25T12:42:45;14.40;99.90
20045;DHT22;10183;47.808;9.476;2022-09-25T12:48:11;14.80;99.90
20045;DHT22;10183;47.808;9.476;2022-09-25T12:53:36;15.10;99.90
20045;DHT22;10183;47.808;9.476;2022-09-25T12:58:46;14.60;99.90
20045;DHT22;10183;47.808;9.476;2022-09-25T13:01:34;14.90;99.90
20045;DHT22;10183;47.808;9.476;2022-09-25T13:07:20;15.20;99.90
20045;DHT22;10183;47.808;9.476;2022-09-25T13:09:49;15.70;99.90
20045;DHT22;10183;47.808;9.476;2022-09-25T13:14:48;15.10;99.90
20045;DHT22;10183;47.808;9.476;2022-09-25T13:17:17;15.20;99.90
20045;DHT22;10183;47.808;9.476;2022-09-25T13:19:43;15.30;99.90
20045;DHT22;10183;47.808;9.476;2022-09-25T13:22:13;15.40;99.90
20045;DHT22;10183;47.808;9.476;2022-09-25T13:24:49;15.50;99.90
20045;DHT22;10183;47.808;9.476;2022-09-25T13:27:22;15.70;99.90
20045;DHT22;10183;47.808;9.476;2022-09-25T13:30:00;15.80;99.90
20045;DHT22;10183;47.808;9.476;2022-09-25T13:32:30;15.20;99.90
20045;DHT22;10183;47.808;9.476;2022-09-25T13:35:03;15.50;99.90
20045;DHT22;10183;47.808;9.476;2022-09-25T13:37:35;15.80;99.90
20045;DHT22;10183;47.808;9.476;2022-09-25T13:40:36;17.10;99.90
20045;DHT22;10183;47.808;9.476;2022-09-25T13:43:24;16.00;99.90
20045;DHT22;10183;47.808;9.476;2022-09-25T13:48:40;15.60;99.90
20045;DHT22;10183;47.808;9.476;2022-09-25T13:51:31;15.40;99.90
20045;DHT22;10183;47.808;9.476;2022-09-25T13:54:02;15.40;99.90
20045;DHT22;10183;47.808;9.476;2022-09-25T14:01:52;16.00;99.90
20045;DHT22;10183;47.808;9.476;2022-09-25T14:04:35;15.90;99.90
20045;DHT22;10183;47.808;9.476;2022-09-25T14:07:09;15.50;99.90
20045;DHT22;10183;47.808;9.476;2022-09-25T14:09:43;17.40;99.90
20045;DHT22;10183;47.808;9.476;2022-09-25T14:12:35;17.80;99.90
20045;DHT22;10183;47.808;9.476;2022-09-25T14:15:31;17.10;99.90
20045;DHT22;10183;47.808;9.476;2022-09-25T14:18:16;16.70;99.90
20045;DHT22;10183;47.808;9.476;2022-09-25T14:20:47;16.00;99.90
20045;DHT22;10183;47.808;9.476;2022-09-25T14:23:26;16.90;99.90
20045;DHT22;10183;47.808;9.476;2022-09-25T14:26:02;17.30;99.90
20045;DHT22;10183;47.808;9.476;2022-09-25T14:28:33;16.40;99.90
20045;DHT22;10183;47.808;9.476;2022-09-25T14:48:24;14.80;99.90
20045;DHT22;10183;47.808;9.476;2022-09-25T14:50:55;14.90;99.90
20045;DHT22;10183;47.808;9.476;2022-09-25T14:53:43;14.70;99.90
20045;DHT22;10183;47.808;9.476;2022-09-25T14:56:12;14.60;99.90
20045;DHT22;10183;47.808;9.476;2022-09-25T14:58:45;13.50;99.90
20045;DHT22;10183;47.808;9.476;2022-09-25T15:01:29;13.30;99.90
20045;DHT22;10183;47.808;9.476;2022-09-25T15:04:03;12.70;99.90
20045;DHT22;10183;47.808;9.476;2022-09-25T15:06:36;12.60;99.90
20045;DHT22;10183;47.808;9.476;2022-09-25T15:09:27;12.70;99.90
20045;DHT22;10183;47.808;9.476;2022-09-25T15:11:54;12.80;99.90
20045;DHT22;10183;47.808;9.476;2022-09-25T15:14:21;12.70;99.90
20045;DHT22;10183;47.808;9.476;2022-09-25T15:16:48;12.70;99.90
20045;DHT22;10183;47.808;9.476;2022-09-25T15:19:38;12.70;99.90
20045;DHT22;10183;47.808;9.476;2022-09-25T15:22:19;12.60;99.90
20045;DHT22;10183;47.808;9.476;2022-09-25T15:24:59;12.60;99.90
20045;DHT22;10183;47.808;9.476;2022-09-25T15:27:26;12.60;99.90
20045;DHT22;10183;47.808;9.476;2022-09-25T15:29:54;12.20;99.90
20045;DHT22;10183;47.808;9.476;2022-09-25T15:32:36;11.60;99.90
20045;DHT22;10183;47.808;9.476;2022-09-25T15:35:25;11.70;99.90
20045;DHT22;10183;47.808;9.476;2022-09-25T15:38:10;11.90;99.90
20045;DHT22;10183;47.808;9.476;2022-09-25T15:40:37;12.00;99.90
20045;DHT22;10183;47.808;9.476;2022-09-25T15:43:13;12.10;99.90
20045;DHT22;10183;47.808;9.476;2022-09-25T15:48:25;11.90;99.90
20045;DHT22;10183;47.808;9.476;2022-09-25T15:50:54;12.00;99.90
20045;DHT22;10183;47.808;9.476;2022-09-25T15:53:30;12.10;99.90
20045;DHT22;10183;47.808;9.476;2022-09-25T15:56:05;12.10;99.90
20045;DHT22;10183;47.808;9.476;2022-09-25T15:58:41;12.00;99.90
20045;DHT22;10183;47.808;9.476;2022-09-25T16:01:11;12.00;99.90
20045;DHT22;10183;47.808;9.476;2022-09-25T16:03:57;12.10;99.90
20045;DHT22;10183;47.808;9.476;2022-09-25T16:06:43;11.70;99.90
20045;DHT22;10183;47.808;9.476;2022-09-25T16:11:42;11.50;99.90
20045;DHT22;10183;47.808;9.476;2022-09-25T16:14:26;11.30;99.90
20045;DHT22;10183;47.808;9.476;2022-09-25T16:16:57;11.30;99.90
20045;DHT22;10183;47.808;9.476;2022-09-25T16:19:26;11.30;99.90
20045;DHT22;10183;47.808;9.476;2022-09-25T16:21:53;11.20;99.90
20045;DHT22;10183;47.808;9.476;2022-09-25T16:24:22;11.30;99.90
20045;DHT22;10183;47.808;9.476;2022-09-25T16:26:58;11.30;99.90
20045;DHT22;10183;47.808;9.476;2022-09-25T16:29:30;11.30;99.90
20045;DHT22;10183;47.808;9.476;2022-09-25T16:32:03;11.30;99.90
20045;DHT22;10183;47.808;9.476;2022-09-25T16:34:34;11.40;99.90
20045;DHT22;10183;47.808;9.476;2022-09-25T16:37:02;11.40;99.90
20045;DHT22;10183;47.808;9.476;2022-09-25T16:41:57;11.30;99.90
20045;DHT22;10183;47.808;9.476;2022-09-25T16:49:23;11.20;99.90
20045;DHT22;10183;47.808;9.476;2022-09-25T16:51:51;11.20;99.90
20045;DHT22;10183;47.808;9.476;2022-09-25T16:54:19;11.00;99.90
20045;DHT22;10183;47.808;9.476;2022-09-25T16:56:47;10.90;99.90
20045;DHT22;10183;47.808;9.476;2022-09-25T16:59:18;10.90;99.90
20045;DHT22;10183;47.808;9.476;2022-09-25T17:01:50;10.90;99.90
20045;DHT22;10183;47.808;9.476;2022-09-25T17:04:24;10.90;99.90
20045;DHT22;10183;47.808;9.476;2022-09-25T17:06:52;10.90;99.90
20045;DHT22;10183;47.808;9.476;2022-09-25T17:09:19;10.90;99.90
20045;DHT22;10183;47.808;9.476;2022-09-25T17:11:47;10.90;99.90
20045;DHT22;10183;47.808;9.476;2022-09-25T17:14:22;10.80;99.90
20045;DHT22;10183;47.808;9.476;2022-09-25T17:16:49;10.90;99.90
20045;DHT22;10183;47.808;9.476;2022-09-25T17:19:16;10.80;99.90
20045;DHT22;10183;47.808;9.476;2022-09-25T17:21:48;10.80;99.90
20045;DHT22;10183;47.808;9.476;2022-09-25T17:24:18;10.80;99.90
20045;DHT22;10183;47.808;9.476;2022-09-25T17:26:45;10.70;99.90
20045;DHT22;10183;47.808;9.476;2022-09-25T17:29:12;10.70;99.90
20045;DHT22;10183;47.808;9.476;2022-09-25T17:31:38;10.80;99.90
20045;DHT22;10183;47.808;9.476;2022-09-25T17:34:15;10.80;99.90
20045;DHT22;10183;47.808;9.476;2022-09-25T17:36:42;10.70;99.90
20045;DHT22;10183;47.808;9.476;2022-09-25T17:39:08;10.70;99.90
20045;DHT22;10183;47.808;9.476;2022-09-25T17:41:35;10.70;99.90
20045;DHT22;10183;47.808;9.476;2022-09-25T17:44:03;10.70;99.90
20045;DHT22;10183;47.808;9.476;2022-09-25T17:46:30;10.70;99.90
20045;DHT22;10183;47.808;9.476;2022-09-25T17:49:00;10.80;99.90
20045;DHT22;10183;47.808;9.476;2022-09-25T17:51:28;10.80;99.90
20045;DHT22;10183;47.808;9.476;2022-09-25T17:53:56;10.80;99.90
20045;DHT22;10183;47.808;9.476;2022-09-25T17:56:23;10.80;99.90
20045;DHT22;10183;47.808;9.476;2022-09-25T17:58:50;10.90;99.90
20045;DHT22;10183;47.808;9.476;2022-09-25T18:01:23;10.80;99.90
20045;DHT22;10183;47.808;9.476;2022-09-25T18:03:52;10.80;99.90
20045;DHT22;10183;47.808;9.476;2022-09-25T18:06:18;10.80;99.90
20045;DHT22;10183;47.808;9.476;2022-09-25T18:08:46;10.90;99.90
20045;DHT22;10183;47.808;9.476;2022-09-25T18:11:14;10.80;99.90
20045;DHT22;10183;47.808;9.476;2022-09-25T18:13:41;10.80;99.90
20045;DHT22;10183;47.808;9.476;2022-09-25T18:16:13;10.80;99.90
20045;DHT22;10183;47.808;9.476;2022-09-25T18:18:42;10.80;99.90
20045;DHT22;10183;47.808;9.476;2022-09-25T18:21:27;10.80;99.90
20045;DHT22;10183;47.808;9.476;2022-09-25T18:24:12;10.80;99.90
20045;DHT22;10183;47.808;9.476;2022-09-25T18:26:39;10.80;99.90
20045;DHT22;10183;47.808;9.476;2022-09-25T18:29:06;10.80;99.90
20045;DHT22;10183;47.808;9.476;2022-09-25T18:31:33;10.80;99.90
20045;DHT22;10183;47.808;9.476;2022-09-25T18:33:59;10.90;99.90
20045;DHT22;10183;47.808;9.476;2022-09-25T18:36:25;10.90;99.90
20045;DHT22;10183;47.808;9.476;2022-09-25T18:38:51;10.80;99.90